sensor_id;sensor_type;location;lat;lon;timestamp;P1;durP1;ratioP1;P2;durP2;ratioP2
65543;SDS011;52173;45.204;39.240;2023-07-22T04:57:21;10.00;;;5.60;;
65543;SDS011;52173;45.204;39.240;2023-07-22T04:59:48;12.90;;;6.03;;
65543;SDS011;52173;45.204;39.240;2023-07-22T05:02:16;10.38;;;5.90;;
65543;SDS011;52173;45.204;39.240;2023-07-22T05:04:42;8.30;;;5.15;;
65543;SDS011;52173;45.204;39.240;2023-07-22T05:07:08;11.23;;;5.47;;
65543;SDS011;52173;45.204;39.240;2023-07-22T05:09:35;7.68;;;4.68;;
65543;SDS011;52173;45.204;39.240;2023-07-22T05:12:01;10.93;;;5.53;;
65543;SDS011;52173;45.204;39.240;2023-07-22T05:14:28;8.68;;;5.75;;
65543;SDS011;52173;45.204;39.240;2023-07-22T05:16:54;9.35;;;5.20;;
65543;SDS011;52173;45.204;39.240;2023-07-22T05:19:20;7.68;;;4.88;;
65543;SDS011;52173;45.204;39.240;2023-07-22T05:21:52;13.30;;;5.25;;
65543;SDS011;52173;45.204;39.240;2023-07-22T05:24:23;10.90;;;5.43;;
65543;SDS011;52173;45.204;39.240;2023-07-22T05:35:31;9.63;;;4.80;;
65543;SDS011;52173;45.204;39.240;2023-07-22T05:37:56;13.70;;;5.95;;
65543;SDS011;52173;45.204;39.240;2023-07-22T05:40:22;10.45;;;7.35;;
65543;SDS011;52173;45.204;39.240;2023-07-22T05:42:48;9.45;;;4.90;;
65543;SDS011;52173;45.204;39.240;2023-07-22T05:45:15;12.50;;;4.70;;
65543;SDS011;52173;45.204;39.240;2023-07-22T05:47:41;6.72;;;4.47;;
65543;SDS011;52173;45.204;39.240;2023-07-22T05:50:07;8.77;;;4.75;;
65543;SDS011;52173;45.204;39.240;2023-07-22T06:00:40;8.57;;;4.43;;
65543;SDS011;52173;45.204;39.240;2023-07-22T06:03:14;10.98;;;4.70;;
65543;SDS011;52173;45.204;39.240;2023-07-22T06:08:44;9.88;;;4.30;;
65543;SDS011;52173;45.204;39.240;2023-07-22T06:11:20;13.32;;;4.20;;
65543;SDS011;52173;45.204;39.240;2023-07-22T06:17:14;24.70;;;5.15;;
65543;SDS011;52173;45.204;39.240;2023-07-22T06:19:42;19.70;;;5.00;;
65543;SDS011;52173;45.204;39.240;2023-07-22T06:22:16;8.85;;;4.15;;
65543;SDS011;52173;45.204;39.240;2023-07-22T06:32:51;10.18;;;4.53;;
65543;SDS011;52173;45.204;39.240;2023-07-22T06:35:17;11.02;;;4.38;;
65543;SDS011;52173;45.204;39.240;2023-07-22T06:41:17;7.43;;;3.88;;
65543;SDS011;52173;45.204;39.240;2023-07-22T06:46:13;8.23;;;4.10;;
65543;SDS011;52173;45.204;39.240;2023-07-22T06:48:38;7.65;;;3.80;;
65543;SDS011;52173;45.204;39.240;2023-07-22T06:51:06;9.10;;;4.10;;
65543;SDS011;52173;45.204;39.240;2023-07-22T06:53:33;8.38;;;4.07;;
65543;SDS011;52173;45.204;39.240;2023-07-22T06:55:59;8.82;;;3.75;;
65543;SDS011;52173;45.204;39.240;2023-07-22T06:58:24;10.25;;;4.50;;
65543;SDS011;52173;45.204;39.240;2023-07-22T07:00:53;9.10;;;3.72;;
65543;SDS011;52173;45.204;39.240;2023-07-22T07:03:19;9.02;;;3.85;;
65543;SDS011;52173;45.204;39.240;2023-07-22T07:05:53;6.97;;;3.50;;
65543;SDS011;52173;45.204;39.240;2023-07-22T07:08:19;8.73;;;3.67;;
65543;SDS011;52173;45.204;39.240;2023-07-22T07:10:45;7.25;;;3.58;;
65543;SDS011;52173;45.204;39.240;2023-07-22T07:13:12;5.45;;;3.92;;
65543;SDS011;52173;45.204;39.240;2023-07-22T07:15:39;9.50;;;3.97;;
65543;SDS011;52173;45.204;39.240;2023-07-22T07:18:05;6.25;;;3.72;;
65543;SDS011;52173;45.204;39.240;2023-07-22T07:20:31;7.82;;;3.50;;
65543;SDS011;52173;45.204;39.240;2023-07-22T07:22:57;10.65;;;3.67;;
65543;SDS011;52173;45.204;39.240;2023-07-22T07:25:23;5.13;;;3.00;;
65543;SDS011;52173;45.204;39.240;2023-07-22T07:27:49;7.75;;;3.30;;
65543;SDS011;52173;45.204;39.240;2023-07-22T07:30:14;7.20;;;3.17;;
65543;SDS011;52173;45.204;39.240;2023-07-22T07:32:40;32.80;;;4.70;;
65543;SDS011;52173;45.204;39.240;2023-07-22T07:35:06;6.13;;;3.22;;
65543;SDS011;52173;45.204;39.240;2023-07-22T07:37:32;14.95;;;3.92;;
65543;SDS011;52173;45.204;39.240;2023-07-22T07:39:58;10.30;;;3.33;;
65543;SDS011;52173;45.204;39.240;2023-07-22T07:42:28;9.07;;;3.33;;
65543;SDS011;52173;45.204;39.240;2023-07-22T07:44:53;5.95;;;3.20;;
65543;SDS011;52173;45.204;39.240;2023-07-22T07:47:19;8.77;;;3.20;;
65543;SDS011;52173;45.204;39.240;2023-07-22T07:49:46;7.97;;;3.22;;
65543;SDS011;52173;45.204;39.240;2023-07-22T07:52:12;7.80;;;3.03;;
65543;SDS011;52173;45.204;39.240;2023-07-22T07:54:37;6.80;;;3.30;;
65543;SDS011;52173;45.204;39.240;2023-07-22T07:57:03;10.93;;;3.15;;
65543;SDS011;52173;45.204;39.240;2023-07-22T07:59:29;9.48;;;3.42;;
65543;SDS011;52173;45.204;39.240;2023-07-22T08:01:55;6.88;;;3.33;;
65543;SDS011;52173;45.204;39.240;2023-07-22T08:04:20;7.85;;;3.47;;
65543;SDS011;52173;45.204;39.240;2023-07-22T08:06:46;5.60;;;3.15;;
65543;SDS011;52173;45.204;39.240;2023-07-22T08:09:12;6.85;;;3.45;;
65543;SDS011;52173;45.204;39.240;2023-07-22T08:11:44;9.55;;;3.67;;
65543;SDS011;52173;45.204;39.240;2023-07-22T08:14:11;5.72;;;3.00;;
65543;SDS011;52173;45.204;39.240;2023-07-22T08:16:36;6.18;;;3.22;;
65543;SDS011;52173;45.204;39.240;2023-07-22T08:19:02;6.10;;;3.28;;
65543;SDS011;52173;45.204;39.240;2023-07-22T08:21:28;7.05;;;3.25;;
65543;SDS011;52173;45.204;39.240;2023-07-22T08:23:54;6.45;;;3.22;;
65543;SDS011;52173;45.204;39.240;2023-07-22T08:26:19;8.93;;;3.25;;
65543;SDS011;52173;45.204;39.240;2023-07-22T08:28:47;7.68;;;3.10;;
65543;SDS011;52173;45.204;39.240;2023-07-22T08:31:13;5.43;;;3.35;;
65543;SDS011;52173;45.204;39.240;2023-07-22T08:33:39;45.72;;;5.13;;
65543;SDS011;52173;45.204;39.240;2023-07-22T08:36:04;7.95;;;3.35;;
65543;SDS011;52173;45.204;39.240;2023-07-22T08:38:30;5.25;;;3.60;;
65543;SDS011;52173;45.204;39.240;2023-07-22T08:40:57;9.27;;;3.85;;
65543;SDS011;52173;45.204;39.240;2023-07-22T08:43:22;9.63;;;3.78;;
65543;SDS011;52173;45.204;39.240;2023-07-22T08:45:49;8.13;;;4.25;;
65543;SDS011;52173;45.204;39.240;2023-07-22T08:48:16;7.70;;;3.78;;
65543;SDS011;52173;45.204;39.240;2023-07-22T08:50:51;6.93;;;4.00;;
65543;SDS011;52173;45.204;39.240;2023-07-22T08:53:18;6.78;;;4.03;;
65543;SDS011;52173;45.204;39.240;2023-07-22T08:55:46;10.02;;;3.78;;
65543;SDS011;52173;45.204;39.240;2023-07-22T08:58:15;5.50;;;3.83;;
65543;SDS011;52173;45.204;39.240;2023-07-22T09:00:42;7.22;;;4.30;;
65543;SDS011;52173;45.204;39.240;2023-07-22T09:03:08;11.32;;;4.28;;
65543;SDS011;52173;45.204;39.240;2023-07-22T09:05:34;9.40;;;4.25;;
65543;SDS011;52173;45.204;39.240;2023-07-22T09:08:04;7.45;;;4.25;;
65543;SDS011;52173;45.204;39.240;2023-07-22T09:10:30;9.93;;;4.10;;
65543;SDS011;52173;45.204;39.240;2023-07-22T09:12:57;7.53;;;4.00;;
65543;SDS011;52173;45.204;39.240;2023-07-22T09:17:59;8.82;;;3.80;;
65543;SDS011;52173;45.204;39.240;2023-07-22T09:20:26;7.18;;;3.75;;
65543;SDS011;52173;45.204;39.240;2023-07-22T09:22:54;8.27;;;3.80;;
65543;SDS011;52173;45.204;39.240;2023-07-22T09:28:21;7.15;;;3.58;;
65543;SDS011;52173;45.204;39.240;2023-07-22T09:31:01;8.95;;;3.92;;
65543;SDS011;52173;45.204;39.240;2023-07-22T09:33:27;6.70;;;3.50;;
65543;SDS011;52173;45.204;39.240;2023-07-22T09:35:53;8.07;;;3.78;;
65543;SDS011;52173;45.204;39.240;2023-07-22T09:44:12;6.30;;;3.60;;
65543;SDS011;52173;45.204;39.240;2023-07-22T09:49:16;5.82;;;3.20;;
65543;SDS011;52173;45.204;39.240;2023-07-22T09:51:44;7.60;;;3.38;;
65543;SDS011;52173;45.204;39.240;2023-07-22T09:56:49;7.55;;;3.22;;
65543;SDS011;52173;45.204;39.240;2023-07-22T10:04:34;4.72;;;2.95;;
65543;SDS011;52173;45.204;39.240;2023-07-22T10:07:03;6.88;;;3.17;;
65543;SDS011;52173;45.204;39.240;2023-07-22T10:09:31;4.57;;;2.95;;
65543;SDS011;52173;45.204;39.240;2023-07-22T10:11:57;5.57;;;3.05;;
65543;SDS011;52173;45.204;39.240;2023-07-22T10:14:22;5.43;;;3.00;;
65543;SDS011;52173;45.204;39.240;2023-07-22T10:16:48;48.75;;;5.88;;
65543;SDS011;52173;45.204;39.240;2023-07-22T10:19:14;5.32;;;2.72;;
65543;SDS011;52173;45.204;39.240;2023-07-22T10:21:41;8.85;;;3.33;;
65543;SDS011;52173;45.204;39.240;2023-07-22T10:24:21;5.28;;;3.20;;
65543;SDS011;52173;45.204;39.240;2023-07-22T10:26:46;6.72;;;3.25;;
65543;SDS011;52173;45.204;39.240;2023-07-22T10:29:16;8.68;;;3.28;;
65543;SDS011;52173;45.204;39.240;2023-07-22T10:31:43;8.68;;;3.35;;
65543;SDS011;52173;45.204;39.240;2023-07-22T10:34:09;12.52;;;3.80;;
65543;SDS011;52173;45.204;39.240;2023-07-22T10:36:35;8.55;;;3.30;;
65543;SDS011;52173;45.204;39.240;2023-07-22T10:39:01;13.80;;;3.78;;
65543;SDS011;52173;45.204;39.240;2023-07-22T10:41:27;6.07;;;3.67;;
65543;SDS011;52173;45.204;39.240;2023-07-22T10:43:57;8.70;;;3.40;;
65543;SDS011;52173;45.204;39.240;2023-07-22T10:46:33;7.10;;;3.67;;
65543;SDS011;52173;45.204;39.240;2023-07-22T10:49:12;14.63;;;3.97;;
65543;SDS011;52173;45.204;39.240;2023-07-22T10:51:38;7.95;;;3.60;;
65543;SDS011;52173;45.204;39.240;2023-07-22T10:54:10;8.30;;;3.65;;
65543;SDS011;52173;45.204;39.240;2023-07-22T10:56:36;7.73;;;3.67;;
65543;SDS011;52173;45.204;39.240;2023-07-22T10:59:02;6.10;;;3.70;;
65543;SDS011;52173;45.204;39.240;2023-07-22T11:06:30;7.47;;;3.67;;
65543;SDS011;52173;45.204;39.240;2023-07-22T11:08:56;5.70;;;3.42;;
65543;SDS011;52173;45.204;39.240;2023-07-22T11:11:43;5.72;;;3.22;;
65543;SDS011;52173;45.204;39.240;2023-07-22T11:16:41;9.25;;;4.00;;
65543;SDS011;52173;45.204;39.240;2023-07-22T11:19:07;12.18;;;3.72;;
65543;SDS011;52173;45.204;39.240;2023-07-22T11:21:33;7.00;;;3.63;;
65543;SDS011;52173;45.204;39.240;2023-07-22T11:23:58;9.05;;;4.03;;
65543;SDS011;52173;45.204;39.240;2023-07-22T11:26:24;7.80;;;3.63;;
65543;SDS011;52173;45.204;39.240;2023-07-22T11:28:50;8.20;;;3.97;;
65543;SDS011;52173;45.204;39.240;2023-07-22T11:31:18;6.90;;;4.07;;
65543;SDS011;52173;45.204;39.240;2023-07-22T11:33:44;8.70;;;4.00;;
65543;SDS011;52173;45.204;39.240;2023-07-22T11:36:12;10.45;;;3.65;;
65543;SDS011;52173;45.204;39.240;2023-07-22T11:38:38;7.72;;;3.95;;
65543;SDS011;52173;45.204;39.240;2023-07-22T11:41:05;8.95;;;4.05;;
65543;SDS011;52173;45.204;39.240;2023-07-22T11:43:31;7.78;;;3.85;;
65543;SDS011;52173;45.204;39.240;2023-07-22T11:45:57;7.72;;;4.00;;
65543;SDS011;52173;45.204;39.240;2023-07-22T11:48:23;8.93;;;3.80;;
65543;SDS011;52173;45.204;39.240;2023-07-22T11:50:48;12.95;;;4.10;;
65543;SDS011;52173;45.204;39.240;2023-07-22T11:53:14;7.15;;;3.75;;
65543;SDS011;52173;45.204;39.240;2023-07-22T11:55:40;8.10;;;4.03;;
65543;SDS011;52173;45.204;39.240;2023-07-22T11:58:06;7.55;;;3.70;;
65543;SDS011;52173;45.204;39.240;2023-07-22T12:00:33;7.65;;;3.47;;
65543;SDS011;52173;45.204;39.240;2023-07-22T12:03:04;7.97;;;3.70;;
65543;SDS011;52173;45.204;39.240;2023-07-22T12:05:30;14.85;;;4.00;;
65543;SDS011;52173;45.204;39.240;2023-07-22T12:08:00;8.95;;;4.05;;
65543;SDS011;52173;45.204;39.240;2023-07-22T12:10:29;8.45;;;4.03;;
65543;SDS011;52173;45.204;39.240;2023-07-22T12:12:55;6.93;;;4.00;;
65543;SDS011;52173;45.204;39.240;2023-07-22T12:15:25;7.88;;;4.07;;
65543;SDS011;52173;45.204;39.240;2023-07-22T12:17:52;5.80;;;3.40;;
65543;SDS011;52173;45.204;39.240;2023-07-22T12:20:19;9.38;;;4.05;;
65543;SDS011;52173;45.204;39.240;2023-07-22T12:22:48;5.75;;;4.03;;
65543;SDS011;52173;45.204;39.240;2023-07-22T12:25:14;7.10;;;3.95;;
65543;SDS011;52173;45.204;39.240;2023-07-22T12:27:40;7.40;;;3.85;;
65543;SDS011;52173;45.204;39.240;2023-07-22T12:30:06;7.03;;;4.22;;
65543;SDS011;52173;45.204;39.240;2023-07-22T12:32:32;9.10;;;4.05;;
65543;SDS011;52173;45.204;39.240;2023-07-22T12:34:58;10.43;;;4.18;;
65543;SDS011;52173;45.204;39.240;2023-07-22T12:37:24;5.72;;;3.45;;
65543;SDS011;52173;45.204;39.240;2023-07-22T12:39:51;7.47;;;3.90;;
65543;SDS011;52173;45.204;39.240;2023-07-22T12:42:17;10.48;;;4.25;;
65543;SDS011;52173;45.204;39.240;2023-07-22T12:44:42;7.43;;;3.90;;
65543;SDS011;52173;45.204;39.240;2023-07-22T12:47:08;8.52;;;3.80;;
65543;SDS011;52173;45.204;39.240;2023-07-22T12:49:34;9.88;;;4.35;;
65543;SDS011;52173;45.204;39.240;2023-07-22T12:52:00;10.38;;;4.20;;
65543;SDS011;52173;45.204;39.240;2023-07-22T12:54:30;7.68;;;4.30;;
65543;SDS011;52173;45.204;39.240;2023-07-22T12:56:56;6.75;;;4.43;;
65543;SDS011;52173;45.204;39.240;2023-07-22T12:59:22;7.55;;;4.00;;
65543;SDS011;52173;45.204;39.240;2023-07-22T13:01:48;7.60;;;4.28;;
65543;SDS011;52173;45.204;39.240;2023-07-22T13:04:14;5.97;;;4.07;;
65543;SDS011;52173;45.204;39.240;2023-07-22T13:06:39;6.35;;;4.07;;
65543;SDS011;52173;45.204;39.240;2023-07-22T13:09:05;8.75;;;4.07;;
65543;SDS011;52173;45.204;39.240;2023-07-22T13:11:31;14.88;;;4.38;;
65543;SDS011;52173;45.204;39.240;2023-07-22T13:13:57;25.58;;;5.15;;
65543;SDS011;52173;45.204;39.240;2023-07-22T13:16:23;7.43;;;4.03;;
65543;SDS011;52173;45.204;39.240;2023-07-22T13:18:49;8.25;;;4.35;;
65543;SDS011;52173;45.204;39.240;2023-07-22T13:21:14;9.30;;;4.00;;
65543;SDS011;52173;45.204;39.240;2023-07-22T13:23:40;8.52;;;3.75;;
65543;SDS011;52173;45.204;39.240;2023-07-22T13:26:06;7.45;;;4.30;;
65543;SDS011;52173;45.204;39.240;2023-07-22T13:28:32;8.70;;;4.40;;
65543;SDS011;52173;45.204;39.240;2023-07-22T13:30:57;8.65;;;4.60;;
65543;SDS011;52173;45.204;39.240;2023-07-22T13:33:23;12.07;;;4.10;;
65543;SDS011;52173;45.204;39.240;2023-07-22T13:35:49;11.25;;;4.35;;
65543;SDS011;52173;45.204;39.240;2023-07-22T13:38:16;9.07;;;4.28;;
65543;SDS011;52173;45.204;39.240;2023-07-22T13:40:42;11.82;;;4.40;;
65543;SDS011;52173;45.204;39.240;2023-07-22T13:43:07;7.30;;;4.47;;
65543;SDS011;52173;45.204;39.240;2023-07-22T13:45:35;6.00;;;4.20;;
65543;SDS011;52173;45.204;39.240;2023-07-22T13:48:00;8.50;;;3.97;;
65543;SDS011;52173;45.204;39.240;2023-07-22T13:50:26;7.50;;;4.55;;
65543;SDS011;52173;45.204;39.240;2023-07-22T13:52:52;9.20;;;4.47;;
65543;SDS011;52173;45.204;39.240;2023-07-22T13:55:18;10.40;;;4.43;;
65543;SDS011;52173;45.204;39.240;2023-07-22T13:57:44;9.00;;;4.43;;
65543;SDS011;52173;45.204;39.240;2023-07-22T14:00:09;10.50;;;4.32;;
65543;SDS011;52173;45.204;39.240;2023-07-22T14:02:38;10.30;;;4.63;;
65543;SDS011;52173;45.204;39.240;2023-07-22T14:05:04;15.02;;;4.60;;
65543;SDS011;52173;45.204;39.240;2023-07-22T14:07:30;9.55;;;4.30;;
65543;SDS011;52173;45.204;39.240;2023-07-22T14:09:56;7.32;;;4.25;;
65543;SDS011;52173;45.204;39.240;2023-07-22T14:12:21;9.32;;;4.28;;
65543;SDS011;52173;45.204;39.240;2023-07-22T14:14:47;8.02;;;3.90;;
65543;SDS011;52173;45.204;39.240;2023-07-22T14:17:13;12.98;;;4.43;;
65543;SDS011;52173;45.204;39.240;2023-07-22T14:19:39;18.00;;;4.32;;
65543;SDS011;52173;45.204;39.240;2023-07-22T14:22:04;7.68;;;4.18;;
65543;SDS011;52173;45.204;39.240;2023-07-22T14:24:30;7.13;;;4.10;;
65543;SDS011;52173;45.204;39.240;2023-07-22T14:26:56;8.65;;;4.38;;
65543;SDS011;52173;45.204;39.240;2023-07-22T14:29:22;10.15;;;4.38;;
65543;SDS011;52173;45.204;39.240;2023-07-22T14:31:48;8.95;;;4.40;;
65543;SDS011;52173;45.204;39.240;2023-07-22T14:34:13;6.82;;;4.05;;
65543;SDS011;52173;45.204;39.240;2023-07-22T14:36:39;20.40;;;4.97;;
65543;SDS011;52173;45.204;39.240;2023-07-22T14:39:05;25.27;;;5.20;;
65543;SDS011;52173;45.204;39.240;2023-07-22T14:41:31;8.63;;;4.57;;
65543;SDS011;52173;45.204;39.240;2023-07-22T14:43:56;17.00;;;5.43;;
65543;SDS011;52173;45.204;39.240;2023-07-22T14:46:22;13.25;;;4.32;;
65543;SDS011;52173;45.204;39.240;2023-07-22T14:48:48;13.88;;;5.20;;
65543;SDS011;52173;45.204;39.240;2023-07-22T14:51:14;10.65;;;4.85;;
65543;SDS011;52173;45.204;39.240;2023-07-22T14:53:40;13.30;;;4.90;;
65543;SDS011;52173;45.204;39.240;2023-07-22T14:56:05;14.80;;;5.95;;
65543;SDS011;52173;45.204;39.240;2023-07-22T14:58:32;13.70;;;4.97;;
65543;SDS011;52173;45.204;39.240;2023-07-22T15:00:58;11.75;;;5.30;;
65543;SDS011;52173;45.204;39.240;2023-07-22T15:03:24;8.77;;;4.20;;
65543;SDS011;52173;45.204;39.240;2023-07-22T15:05:49;14.07;;;5.57;;
65543;SDS011;52173;45.204;39.240;2023-07-22T15:08:15;10.88;;;4.63;;
65543;SDS011;52173;45.204;39.240;2023-07-22T15:10:41;7.40;;;4.65;;
65543;SDS011;52173;45.204;39.240;2023-07-22T15:13:07;18.23;;;5.25;;
65543;SDS011;52173;45.204;39.240;2023-07-22T15:15:32;12.52;;;4.97;;
65543;SDS011;52173;45.204;39.240;2023-07-22T15:17:58;9.90;;;4.68;;
65543;SDS011;52173;45.204;39.240;2023-07-22T15:20:24;10.70;;;4.78;;
65543;SDS011;52173;45.204;39.240;2023-07-22T15:22:50;10.20;;;5.22;;
65543;SDS011;52173;45.204;39.240;2023-07-22T15:25:15;13.77;;;5.35;;
65543;SDS011;52173;45.204;39.240;2023-07-22T15:27:41;24.83;;;5.97;;
65543;SDS011;52173;45.204;39.240;2023-07-22T15:30:09;8.95;;;5.78;;
65543;SDS011;52173;45.204;39.240;2023-07-22T15:32:35;12.27;;;5.32;;
65543;SDS011;52173;45.204;39.240;2023-07-22T15:35:01;9.35;;;4.75;;
65543;SDS011;52173;45.204;39.240;2023-07-22T15:37:26;18.45;;;4.75;;
65543;SDS011;52173;45.204;39.240;2023-07-22T15:39:52;8.18;;;5.03;;
65543;SDS011;52173;45.204;39.240;2023-07-22T15:42:18;11.20;;;4.90;;
65543;SDS011;52173;45.204;39.240;2023-07-22T15:44:44;9.50;;;4.35;;
65543;SDS011;52173;45.204;39.240;2023-07-22T15:47:09;10.88;;;4.70;;
65543;SDS011;52173;45.204;39.240;2023-07-22T15:49:35;9.25;;;4.65;;
65543;SDS011;52173;45.204;39.240;2023-07-22T15:52:01;8.52;;;5.05;;
65543;SDS011;52173;45.204;39.240;2023-07-22T15:54:27;11.88;;;5.15;;
65543;SDS011;52173;45.204;39.240;2023-07-22T15:56:53;9.88;;;4.53;;
65543;SDS011;52173;45.204;39.240;2023-07-22T15:59:19;10.30;;;5.05;;
65543;SDS011;52173;45.204;39.240;2023-07-22T16:01:46;9.68;;;4.72;;
65543;SDS011;52173;45.204;39.240;2023-07-22T16:04:12;11.13;;;4.97;;
65543;SDS011;52173;45.204;39.240;2023-07-22T16:06:38;16.85;;;5.85;;
65543;SDS011;52173;45.204;39.240;2023-07-22T16:09:06;14.18;;;5.20;;
65543;SDS011;52173;45.204;39.240;2023-07-22T16:11:32;12.32;;;6.22;;
65543;SDS011;52173;45.204;39.240;2023-07-22T16:13:58;16.98;;;8.57;;
65543;SDS011;52173;45.204;39.240;2023-07-22T16:16:24;24.17;;;10.98;;
65543;SDS011;52173;45.204;39.240;2023-07-22T16:18:50;20.13;;;11.30;;
65543;SDS011;52173;45.204;39.240;2023-07-22T16:21:17;16.05;;;8.02;;
65543;SDS011;52173;45.204;39.240;2023-07-22T16:23:43;16.05;;;6.95;;
65543;SDS011;52173;45.204;39.240;2023-07-22T16:26:09;16.73;;;6.13;;
65543;SDS011;52173;45.204;39.240;2023-07-22T16:28:35;14.05;;;6.97;;
65543;SDS011;52173;45.204;39.240;2023-07-22T16:31:00;22.10;;;7.53;;
65543;SDS011;52173;45.204;39.240;2023-07-22T16:33:26;25.10;;;7.63;;
65543;SDS011;52173;45.204;39.240;2023-07-22T16:35:52;17.08;;;8.82;;
65543;SDS011;52173;45.204;39.240;2023-07-22T16:38:18;26.00;;;9.27;;
65543;SDS011;52173;45.204;39.240;2023-07-22T16:40:44;22.77;;;9.93;;
65543;SDS011;52173;45.204;39.240;2023-07-22T16:43:09;20.85;;;10.85;;
65543;SDS011;52173;45.204;39.240;2023-07-22T16:45:36;17.83;;;9.95;;
65543;SDS011;52173;45.204;39.240;2023-07-22T16:48:01;15.85;;;8.85;;
65543;SDS011;52173;45.204;39.240;2023-07-22T16:50:27;17.13;;;9.32;;
65543;SDS011;52173;45.204;39.240;2023-07-22T16:52:53;31.48;;;9.85;;
65543;SDS011;52173;45.204;39.240;2023-07-22T16:55:19;30.50;;;9.50;;
65543;SDS011;52173;45.204;39.240;2023-07-22T16:57:45;23.63;;;8.75;;
65543;SDS011;52173;45.204;39.240;2023-07-22T17:00:11;23.10;;;9.20;;
65543;SDS011;52173;45.204;39.240;2023-07-22T17:02:37;21.02;;;9.63;;
65543;SDS011;52173;45.204;39.240;2023-07-22T17:05:04;16.33;;;8.48;;
65543;SDS011;52173;45.204;39.240;2023-07-22T17:07:30;27.58;;;9.20;;
65543;SDS011;52173;45.204;39.240;2023-07-22T17:09:56;28.20;;;9.20;;
65543;SDS011;52173;45.204;39.240;2023-07-22T17:12:22;20.33;;;9.02;;
65543;SDS011;52173;45.204;39.240;2023-07-22T17:14:47;19.17;;;8.95;;
65543;SDS011;52173;45.204;39.240;2023-07-22T17:17:13;19.05;;;8.23;;
65543;SDS011;52173;45.204;39.240;2023-07-22T17:19:39;22.38;;;8.85;;
65543;SDS011;52173;45.204;39.240;2023-07-22T17:22:05;21.00;;;10.50;;
65543;SDS011;52173;45.204;39.240;2023-07-22T17:24:31;16.73;;;9.38;;
65543;SDS011;52173;45.204;39.240;2023-07-22T17:26:57;17.35;;;9.80;;
65543;SDS011;52173;45.204;39.240;2023-07-22T17:29:22;16.83;;;10.20;;
65543;SDS011;52173;45.204;39.240;2023-07-22T17:31:48;18.63;;;10.60;;
65543;SDS011;52173;45.204;39.240;2023-07-22T17:34:14;22.17;;;10.73;;
65543;SDS011;52173;45.204;39.240;2023-07-22T17:36:41;18.08;;;10.93;;
65543;SDS011;52173;45.204;39.240;2023-07-22T17:39:07;24.20;;;11.30;;
65543;SDS011;52173;45.204;39.240;2023-07-22T17:41:33;16.83;;;10.77;;
65543;SDS011;52173;45.204;39.240;2023-07-22T17:43:58;19.23;;;11.23;;
65543;SDS011;52173;45.204;39.240;2023-07-22T17:46:24;22.00;;;12.73;;
65543;SDS011;52173;45.204;39.240;2023-07-22T17:48:50;22.83;;;13.88;;
65543;SDS011;52173;45.204;39.240;2023-07-22T17:51:16;19.67;;;12.70;;
65543;SDS011;52173;45.204;39.240;2023-07-22T17:53:41;21.90;;;12.73;;
65543;SDS011;52173;45.204;39.240;2023-07-22T17:56:07;32.58;;;16.73;;
65543;SDS011;52173;45.204;39.240;2023-07-22T17:58:33;39.28;;;25.02;;
65543;SDS011;52173;45.204;39.240;2023-07-22T18:00:59;61.50;;;23.92;;
65543;SDS011;52173;45.204;39.240;2023-07-22T18:03:26;46.88;;;21.83;;
65543;SDS011;52173;45.204;39.240;2023-07-22T18:05:52;45.05;;;24.15;;
65543;SDS011;52173;45.204;39.240;2023-07-22T18:08:18;45.22;;;24.83;;
65543;SDS011;52173;45.204;39.240;2023-07-22T18:10:44;38.08;;;26.63;;
65543;SDS011;52173;45.204;39.240;2023-07-22T18:13:09;88.35;;;44.03;;
65543;SDS011;52173;45.204;39.240;2023-07-22T18:15:35;84.38;;;41.42;;
65543;SDS011;52173;45.204;39.240;2023-07-22T18:18:01;87.80;;;41.65;;
65543;SDS011;52173;45.204;39.240;2023-07-22T18:20:27;79.45;;;38.88;;
65543;SDS011;52173;45.204;39.240;2023-07-22T18:22:53;79.93;;;41.17;;
65543;SDS011;52173;45.204;39.240;2023-07-22T18:25:20;72.72;;;41.60;;
65543;SDS011;52173;45.204;39.240;2023-07-22T18:27:46;66.88;;;38.25;;
65543;SDS011;52173;45.204;39.240;2023-07-22T18:30:12;66.97;;;34.08;;
65543;SDS011;52173;45.204;39.240;2023-07-22T18:32:38;80.00;;;34.05;;
65543;SDS011;52173;45.204;39.240;2023-07-22T18:35:04;71.50;;;30.42;;
65543;SDS011;52173;45.204;39.240;2023-07-22T18:37:30;66.47;;;34.63;;
65543;SDS011;52173;45.204;39.240;2023-07-22T18:39:56;55.10;;;31.48;;
65543;SDS011;52173;45.204;39.240;2023-07-22T18:42:22;57.65;;;28.40;;
65543;SDS011;52173;45.204;39.240;2023-07-22T18:44:49;45.33;;;29.63;;
65543;SDS011;52173;45.204;39.240;2023-07-22T18:47:15;51.05;;;32.28;;
65543;SDS011;52173;45.204;39.240;2023-07-22T18:49:41;42.35;;;28.30;;
65543;SDS011;52173;45.204;39.240;2023-07-22T18:52:07;45.90;;;27.42;;
65543;SDS011;52173;45.204;39.240;2023-07-22T18:54:32;46.83;;;25.52;;
65543;SDS011;52173;45.204;39.240;2023-07-22T18:56:59;50.70;;;24.92;;
65543;SDS011;52173;45.204;39.240;2023-07-22T18:59:24;29.10;;;20.10;;
65543;SDS011;52173;45.204;39.240;2023-07-22T19:01:50;36.97;;;22.98;;
65543;SDS011;52173;45.204;39.240;2023-07-22T19:04:16;27.05;;;15.43;;
65543;SDS011;52173;45.204;39.240;2023-07-22T19:06:42;22.23;;;13.82;;
65543;SDS011;52173;45.204;39.240;2023-07-22T19:09:08;28.02;;;11.30;;
65543;SDS011;52173;45.204;39.240;2023-07-22T19:11:34;22.20;;;10.90;;
65543;SDS011;52173;45.204;39.240;2023-07-22T19:14:00;24.35;;;10.60;;
65543;SDS011;52173;45.204;39.240;2023-07-22T19:16:26;17.83;;;8.75;;
65543;SDS011;52173;45.204;39.240;2023-07-22T19:18:52;18.45;;;8.80;;
65543;SDS011;52173;45.204;39.240;2023-07-22T19:21:18;14.45;;;7.97;;
65543;SDS011;52173;45.204;39.240;2023-07-22T19:23:44;15.13;;;7.05;;
65543;SDS011;52173;45.204;39.240;2023-07-22T19:26:10;19.55;;;7.75;;
65543;SDS011;52173;45.204;39.240;2023-07-22T19:28:36;14.27;;;7.38;;
65543;SDS011;52173;45.204;39.240;2023-07-22T19:31:01;12.60;;;7.35;;
65543;SDS011;52173;45.204;39.240;2023-07-22T19:33:27;20.02;;;7.38;;
65543;SDS011;52173;45.204;39.240;2023-07-22T19:36:00;21.75;;;7.90;;
65543;SDS011;52173;45.204;39.240;2023-07-22T19:38:28;21.38;;;7.78;;
65543;SDS011;52173;45.204;39.240;2023-07-22T19:41:07;12.82;;;7.40;;
65543;SDS011;52173;45.204;39.240;2023-07-22T19:43:34;13.27;;;6.82;;
65543;SDS011;52173;45.204;39.240;2023-07-22T19:46:03;18.65;;;7.90;;
65543;SDS011;52173;45.204;39.240;2023-07-22T19:48:30;14.57;;;7.50;;
65543;SDS011;52173;45.204;39.240;2023-07-22T19:50:56;15.95;;;7.13;;
65543;SDS011;52173;45.204;39.240;2023-07-22T19:53:22;24.55;;;7.28;;
65543;SDS011;52173;45.204;39.240;2023-07-22T19:55:48;17.42;;;7.25;;
65543;SDS011;52173;45.204;39.240;2023-07-22T19:58:14;18.90;;;6.90;;
